Impacts METAR Board
IDs:

KLGA - New York/La Guardia, NY, US

Updated at: 0600 UTC 07 Dec 2022
Potential Impact None Slight Moderate High
Time 06/18Z 06/19Z 06/20Z 06/21Z 06/22Z 06/23Z 07/00Z 07/01Z 07/02Z 07/03Z 07/04Z 07/05Z 07/06Z
Temp57 57 57 59 57 57 57 56 56 56 57 57 57
Dewpt50 50 50 51 50 51 49 51 52 52 53 53 54
Altim30.28 30.27 30.27 30.26 30.28 30.27 30.27 30.27 30.26 30.25 30.23 30.21 30.20
VIS6 8 10 7 2.5 10 8 2.5 4 2 5 4 2
CIG45 50 50 45 27 33 35 27 27 9 10 10 7
CoverOVCOVCOVCOVCOVCOVCOVCOVCOVCOVCOVCOVCOVC
FltCatVFRVFRVFRVFRIFRVFRVFRIFRMVFRIFRMVFRMVFRIFR
WX-RA-RA---RA-RA-RA-RA-RA-RA BR-RA BR-RA BR-RA BRRA BR
WDir150150140130150150160160150140150170180
WSpd10 8 10 12 11 13 9 11 8 9 14 17 16
WGst-- -- -- 16 -- 19 -- -- -- 15 20 -- 24
Raw hourly METARs
KLGA 061751Z 15010KT 6SM -RA FEW018 OVC045 14/10 A3028 RMK AO2 RAB19 SLP254 P0000 60000 T01390100 10144 20078 56009
KLGA 061851Z 15008KT 8SM -RA FEW020 BKN050 OVC070 14/10 A3027 RMK AO2 SLP249 P0001 T01390100
KLGA 061951Z 14010KT 10SM FEW020 BKN050 OVC070 14/10 A3027 RMK AO2 RAE39 SLP249 P0001 T01390100
KLGA 062051Z 13012G16KT 7SM -RA FEW020 OVC045 15/11 A3026 RMK AO2 RAB1957 SLP248 P0000 60002 T01500106 56006
KLGA 062203Z 15011KT 2 1/2SM -RA BKN027 OVC035 14/10 A3028 RMK AO2 P0001 T01390100
KLGA 062251Z 15013G19KT 10SM -RA FEW025 BKN033 OVC045 14/11 A3027 RMK AO2 SLP249 P0007 T01390106
KLGA 062351Z 16009KT 8SM -RA FEW025 OVC035 14/09 A3027 RMK AO2 RAE12B41 SLP251 P0000 60010 T01390094 10156 20133 51002
KLGA 070051Z 16011KT 2 1/2SM -RA FEW016 BKN027 OVC035 13/11 A3027 RMK AO2 SLP248 P0007 T01330106
KLGA 070151Z 15008KT 4SM -RA BR FEW015 OVC027 13/11 A3026 RMK AO2 SLP247 P0007 T01330111
KLGA 070251Z 14009G15KT 2SM -RA BR BKN009 OVC014 13/11 A3025 RMK AO2 SLP244 P0020 60034 T01330111 58006
KLGA 070405Z 15014G20KT 5SM -RA BR FEW008 BKN010 OVC021 14/12 A3023 RMK AO2 P0002 T01390117
KLGA 070451Z 17017KT 4SM -RA BR SCT008 BKN010 OVC015 14/12 A3021 RMK AO2 PK WND 18027/0435 SLP231 P0016 T01390117 401560050
KLGA 070551Z 18016G24KT 2SM RA BR BKN007 OVC019 14/12 A3020 RMK AO2 PK WND 17026/0504 SFC VIS 2 1/2 SLP227 P0013 60081 T01390122 10139 20133 56017



Page loaded:  06:22 UTC  |   10:22 PM Pacific  |   11:22 PM Mountain  |   12:22 AM Central  |   01:22 AM Eastern

 

ADVISORIES

FORECASTS

FORECASTS

OBSERVATIONS

USER TOOLS

ABOUT US